San Amerigo — A8OK6 — position and weather

sailwx.info

Track history (hours):
 
Tides and Currents Weather Stations Pressure Air Temp Water Temp Dewpoint Dewpoint Depression Visibility Wind Speed Wind Dir Waves Ship Positions

San Amerigo

Last reported at 2017-Sep-19 18:59 UTC. Time now 2017-Sep-19 19:07 UTC.
Position N 45°34' E 013°41'.

Length 170 m; beam 27 m; draft 11.3 m.

Type: Ship (hazmat cat B). MMSI: 636091490.

Date/timePositionNaut miles runAvg speedWind from/ knotsBaromVisibWave heightAir tempDewpointWater temp
2017-Sep-19 18:59N 45°34' E 013°41'0 0.0
2017-Sep-19 18:29N 45°34' E 013°41'0 0.1
2017-Sep-19 17:59N 45°34' E 013°41'0 0.0
2017-Sep-19 17:29N 45°34' E 013°41'0 0.0
2017-Sep-19 16:59N 45°34' E 013°41'0 0.0
2017-Sep-19 16:29N 45°34' E 013°41'0 0.4
2017-Sep-19 16:00N 45°34' E 013°41'4 8.0
2017-Sep-19 15:30N 45°35' E 013°35'510.2
2017-Sep-19 15:00N 45°33' E 013°29'510.6
2017-Sep-19 14:30N 45°30' E 013°22'510.3
2017-Sep-19 14:00N 45°27' E 013°17'5 9.9
2017-Sep-19 13:30N 45°23' E 013°12'510.3
2017-Sep-19 13:01N 45°18' E 013°13'510.6
2017-Sep-19 12:30N 45°13' E 013°15'510.7
2017-Sep-19 12:00N 45°08' E 013°18'611.3
2017-Sep-19 11:31N 45°04' E 013°23'611.4
2017-Sep-19 11:01N 44°59' E 013°28'611.5
2017-Sep-19 10:31N 44°55' E 013°33'611.6
2017-Sep-19 10:01N 44°50' E 013°38'611.7
2017-Sep-19 09:31N 44°45' E 013°43'611.8
2017-Sep-19 09:01N 44°41' E 013°49'612.0
2017-Sep-19 08:31N 44°41' E 013°57'510.5
2017-Sep-19 08:00N 44°43' E 014°04'611.5
2017-Sep-19 07:30N 44°48' E 014°07'811.9
2017-Sep-19 06:51N 44°55' E 014°11'612.3
2017-Sep-19 06:23N 45°01' E 014°13'811.9
2017-Sep-19 05:44N 45°09' E 014°15'311.8
2017-Sep-19 05:29N 45°11' E 014°17'611.8
2017-Sep-19 05:00N 45°15' E 014°22'5 0.5
2017-Sep-18 19:09N 45°19' E 014°27'1 3.6
2017-Sep-18 18:59N 45°19' E 014°26'2 4.3
2017-Sep-18 18:30N 45°18' E 014°23'5 8.6
2017-Sep-18 17:57N 45°14' E 014°20'713.3
2017-Sep-18 17:27N 45°07' E 014°15'614.2
2017-Sep-18 17:00N 45°01' E 014°14'815.4
2017-Sep-18 16:30N 44°54' E 014°12'815.7
2017-Sep-18 16:00N 44°46' E 014°09'815.4
2017-Sep-18 15:30N 44°39' E 014°07'815.8
2017-Sep-18 15:00N 44°31' E 014°10'816.2
2017-Sep-18 14:30N 44°23' E 014°14'816.3
2017-Sep-18 14:00N 44°16' E 014°20'31915.2
2017-Sep-17 16:59N 40°13' E 018°59'715.8
2017-Sep-17 16:30N 40°06' E 019°03'916.2
2017-Sep-17 15:58N 39°58' E 019°07'716.3
2017-Sep-17 15:30N 39°51' E 019°11'816.4
2017-Sep-17 15:00N 39°44' E 019°15'816.7
2017-Sep-17 14:30N 39°36' E 019°20'816.6
2017-Sep-17 14:00N 39°29' E 019°24'816.0
2017-Sep-17 13:30N 39°21' E 019°29'816.1
2017-Sep-17 13:00N 39°14' E 019°33'816.3
2017-Sep-17 12:30N 39°06' E 019°37'816.4
2017-Sep-17 12:00N 38°59' E 019°41'816.2
2017-Sep-17 11:30N 38°51' E 019°45'816.3
2017-Sep-17 11:00N 38°44' E 019°49'816.4
2017-Sep-17 10:30N 38°36' E 019°53'816.3
2017-Sep-17 10:00N 38°29' E 019°57'815.6
2017-Sep-17 09:30N 38°22' E 020°01'815.6
2017-Sep-17 09:00N 38°15' E 020°05'815.6
2017-Sep-17 08:30N 38°08' E 020°09'816.0
2017-Sep-17 08:00N 38°00' E 020°13'917.0
2017-Sep-17 07:30N 37°52' E 020°18'815.8
2017-Sep-17 07:00N 37°45' E 020°22'815.5
2017-Sep-17 06:30N 37°38' E 020°26'815.3
2017-Sep-17 06:00N 37°31' E 020°30'714.6
2017-Sep-17 05:30N 37°25' E 020°35'714.6
2017-Sep-17 05:00N 37°20' E 020°42'714.9
2017-Sep-17 04:30N 37°14' E 020°48'815.0
2017-Sep-17 04:00N 37°09' E 020°54'815.2
2017-Sep-17 03:30N 37°03' E 021°00'815.7
2017-Sep-17 03:00N 36°57' E 021°07'815.4
2017-Sep-17 02:30N 36°52' E 021°13'815.2
2017-Sep-17 02:00N 36°46' E 021°20'714.7
2017-Sep-17 01:30N 36°41' E 021°26'714.2
2017-Sep-17 01:00N 36°36' E 021°33'714.3
2017-Sep-17 00:30N 36°33' E 021°41'714.2
2017-Sep-17 00:00N 36°31' E 021°49'713.8
2017-Sep-16 23:30N 36°28' E 021°57'713.9
2017-Sep-16 23:00N 36°25' E 022°05'714.3
2017-Sep-16 22:30N 36°22' E 022°13'4914.3
2017-Sep-16 19:04N 36°23' E 023°14'114.5
2017-Sep-16 19:00N 36°24' E 023°15'1713.9
2017-Sep-16 17:49N 36°38' E 023°25'515.0
2017-Sep-16 17:30N 36°42' E 023°27'815.2
2017-Sep-16 17:01N 36°49' E 023°31'815.3
2017-Sep-16 16:31N 36°57' E 023°34'815.0
2017-Sep-16 16:00N 37°04' E 023°36'714.6
2017-Sep-16 15:31N 37°11' E 023°38'714.4
2017-Sep-16 15:01N 37°18' E 023°40'714.7
2017-Sep-16 14:31N 37°25' E 023°42'714.7
2017-Sep-16 14:00N 37°32' E 023°44'714.4
2017-Sep-16 13:30N 37°40' E 023°42'815.4
2017-Sep-16 13:00N 37°47' E 023°38'714.4
2017-Sep-16 12:30N 37°54' E 023°37'4 7.4
2017-Sep-16 12:00N 37°57' E 023°35'0 0.2
2017-Sep-16 11:29N 37°57' E 023°35'0 0.0
2017-Sep-16 10:59N 37°57' E 023°35'0 0.0
2017-Sep-16 10:29N 37°57' E 023°35'0 0.0
2017-Sep-16 09:59N 37°57' E 023°35'0 0.0
2017-Sep-16 09:29N 37°57' E 023°35'0 0.0
2017-Sep-16 08:59N 37°57' E 023°35'0 0.0
2017-Sep-16 08:29N 37°57' E 023°35'0 0.0
2017-Sep-16 07:59N 37°57' E 023°35'0 0.0
2017-Sep-16 07:29N 37°57' E 023°35'0 0.0
2017-Sep-16 06:59N 37°57' E 023°35'0 0.0
2017-Sep-16 06:29N 37°57' E 023°35'0 0.0
2017-Sep-16 05:59N 37°57' E 023°35'0 0.0
2017-Sep-16 05:29N 37°57' E 023°35'0 0.0
2017-Sep-16 04:59N 37°57' E 023°35'0 0.0
2017-Sep-16 04:29N 37°57' E 023°35'0 0.0
2017-Sep-16 03:59N 37°57' E 023°35'0 0.0
2017-Sep-16 03:29N 37°57' E 023°35'0 0.0
2017-Sep-16 02:59N 37°57' E 023°35'0 0.0
2017-Sep-16 02:29N 37°57' E 023°35'0 0.0
2017-Sep-16 01:59N 37°57' E 023°35'0 0.0
2017-Sep-16 01:29N 37°57' E 023°35'0 0.0
2017-Sep-16 00:59N 37°57' E 023°35'0 0.0
2017-Sep-16 00:29N 37°57' E 023°35'0 0.0
2017-Sep-15 23:59N 37°57' E 023°35'0 0.0
2017-Sep-15 23:29N 37°57' E 023°35'0 0.0
2017-Sep-15 22:59N 37°57' E 023°35'0 0.0
2017-Sep-15 22:29N 37°57' E 023°35'0 0.0
2017-Sep-15 21:59N 37°57' E 023°35'0 0.0
2017-Sep-15 21:29N 37°57' E 023°35'0 0.0
2017-Sep-15 20:59N 37°57' E 023°35'0 0.0
2017-Sep-15 20:29N 37°57' E 023°35'0 0.0
2017-Sep-15 19:59N 37°57' E 023°35'0 0.0
2017-Sep-15 19:29N 37°57' E 023°35'0 0.0
2017-Sep-15 18:53N 37°57' E 023°35'0 0.0
2017-Sep-15 18:29N 37°57' E 023°35'0 0.0
2017-Sep-15 17:59N 37°57' E 023°35'0 0.0
2017-Sep-15 17:29N 37°57' E 023°35'0 0.0
2017-Sep-15 16:59N 37°57' E 023°35'0 0.0
2017-Sep-15 16:29N 37°57' E 023°35'0 0.0
2017-Sep-15 15:59N 37°57' E 023°35'0 0.0
2017-Sep-15 15:29N 37°57' E 023°35'0 0.0
2017-Sep-15 14:59N 37°57' E 023°35'0 0.0
2017-Sep-15 14:29N 37°57' E 023°35'0 0.0
2017-Sep-15 13:59N 37°57' E 023°35'0 0.0
2017-Sep-15 13:29N 37°57' E 023°35'0 0.0
2017-Sep-15 12:59N 37°57' E 023°35'1 3.0
2017-Sep-15 12:30N 37°56' E 023°35'1 2.1
2017-Sep-15 12:00N 37°55' E 023°36'1 1.7
2017-Sep-15 11:31N 37°54' E 023°35'0 0.3
2017-Sep-15 11:01N 37°54' E 023°35'2 4.5
2017-Sep-15 10:30N 37°52' E 023°36'3 6.0
2017-Sep-15 10:00N 37°50' E 023°39'4 8.9
2017-Sep-15 09:30N 37°47' E 023°42'612.5
2017-Sep-15 09:00N 37°41' E 023°45'713.3
2017-Sep-15 08:30N 37°37' E 023°52'815.0
2017-Sep-15 07:59N 37°35' E 024°01'1414.8
2017-Sep-15 07:02N 37°42' E 024°16'114.5
2017-Sep-15 06:59N 37°43' E 024°17'815.0
2017-Sep-15 06:26N 37°49' E 024°25'2915.2
2017-Sep-15 04:31N 38°09' E 024°51'114.2
2017-Sep-15 04:27N 38°10' E 024°52'  
2017-Sep-12 22:42N 39°22' E 024°54'316.1
2017-Sep-12 22:30N 39°23' E 024°50'816.2
2017-Sep-12 22:01N 39°26' E 024°41'2016.2
2017-Sep-12 20:48N 39°34' E 024°18'516.1
2017-Sep-12 20:30N 39°35' E 024°12'816.1
2017-Sep-12 19:59N 39°38' E 024°02'  
Track history (hours):
 
Tides and Currents Weather Stations Pressure Air Temp Water Temp Dewpoint Dewpoint Depression Visibility Wind Speed Wind Dir Waves Ship Positions

San Amerigo

Last reported at 2017-Sep-19 18:59 UTC. Time now 2017-Sep-19 19:07 UTC.
Position N 45°34' E 013°41'.

Length 170 m; beam 27 m; draft 11.3 m.

Type: Ship (hazmat cat B). MMSI: 636091490.

Date/timePositionNaut miles runAvg speedWind from/ knotsBaromVisibWave heightAir tempDewpointWater temp
2017-Sep-19 18:59N 45°34' E 013°41'0 0.0
2017-Sep-19 18:29N 45°34' E 013°41'0 0.1
2017-Sep-19 17:59N 45°34' E 013°41'0 0.0
2017-Sep-19 17:29N 45°34' E 013°41'0 0.0
2017-Sep-19 16:59N 45°34' E 013°41'0 0.0
2017-Sep-19 16:29N 45°34' E 013°41'0 0.4
2017-Sep-19 16:00N 45°34' E 013°41'4 8.0
2017-Sep-19 15:30N 45°35' E 013°35'510.2
2017-Sep-19 15:00N 45°33' E 013°29'510.6
2017-Sep-19 14:30N 45°30' E 013°22'510.3
2017-Sep-19 14:00N 45°27' E 013°17'5 9.9
2017-Sep-19 13:30N 45°23' E 013°12'510.3
2017-Sep-19 13:01N 45°18' E 013°13'510.6
2017-Sep-19 12:30N 45°13' E 013°15'510.7
2017-Sep-19 12:00N 45°08' E 013°18'611.3
2017-Sep-19 11:31N 45°04' E 013°23'611.4
2017-Sep-19 11:01N 44°59' E 013°28'611.5
2017-Sep-19 10:31N 44°55' E 013°33'611.6
2017-Sep-19 10:01N 44°50' E 013°38'611.7
2017-Sep-19 09:31N 44°45' E 013°43'611.8
2017-Sep-19 09:01N 44°41' E 013°49'612.0
2017-Sep-19 08:31N 44°41' E 013°57'510.5
2017-Sep-19 08:00N 44°43' E 014°04'611.5
2017-Sep-19 07:30N 44°48' E 014°07'811.9
2017-Sep-19 06:51N 44°55' E 014°11'612.3
2017-Sep-19 06:23N 45°01' E 014°13'811.9
2017-Sep-19 05:44N 45°09' E 014°15'311.8
2017-Sep-19 05:29N 45°11' E 014°17'611.8
2017-Sep-19 05:00N 45°15' E 014°22'5 0.5
2017-Sep-18 19:09N 45°19' E 014°27'1 3.6
2017-Sep-18 18:59N 45°19' E 014°26'2 4.3
2017-Sep-18 18:30N 45°18' E 014°23'5 8.6
2017-Sep-18 17:57N 45°14' E 014°20'713.3
2017-Sep-18 17:27N 45°07' E 014°15'614.2
2017-Sep-18 17:00N 45°01' E 014°14'815.4
2017-Sep-18 16:30N 44°54' E 014°12'815.7
2017-Sep-18 16:00N 44°46' E 014°09'815.4
2017-Sep-18 15:30N 44°39' E 014°07'815.8
2017-Sep-18 15:00N 44°31' E 014°10'816.2
2017-Sep-18 14:30N 44°23' E 014°14'816.3
2017-Sep-18 14:00N 44°16' E 014°20'31915.2
2017-Sep-17 16:59N 40°13' E 018°59'715.8
2017-Sep-17 16:30N 40°06' E 019°03'916.2
2017-Sep-17 15:58N 39°58' E 019°07'716.3
2017-Sep-17 15:30N 39°51' E 019°11'816.4
2017-Sep-17 15:00N 39°44' E 019°15'816.7
2017-Sep-17 14:30N 39°36' E 019°20'816.6
2017-Sep-17 14:00N 39°29' E 019°24'816.0
2017-Sep-17 13:30N 39°21' E 019°29'816.1
2017-Sep-17 13:00N 39°14' E 019°33'816.3
2017-Sep-17 12:30N 39°06' E 019°37'816.4
2017-Sep-17 12:00N 38°59' E 019°41'816.2
2017-Sep-17 11:30N 38°51' E 019°45'816.3
2017-Sep-17 11:00N 38°44' E 019°49'816.4
2017-Sep-17 10:30N 38°36' E 019°53'816.3
2017-Sep-17 10:00N 38°29' E 019°57'815.6
2017-Sep-17 09:30N 38°22' E 020°01'815.6
2017-Sep-17 09:00N 38°15' E 020°05'815.6
2017-Sep-17 08:30N 38°08' E 020°09'816.0
2017-Sep-17 08:00N 38°00' E 020°13'917.0
2017-Sep-17 07:30N 37°52' E 020°18'815.8
2017-Sep-17 07:00N 37°45' E 020°22'815.5
2017-Sep-17 06:30N 37°38' E 020°26'815.3
2017-Sep-17 06:00N 37°31' E 020°30'714.6
2017-Sep-17 05:30N 37°25' E 020°35'714.6
2017-Sep-17 05:00N 37°20' E 020°42'714.9
2017-Sep-17 04:30N 37°14' E 020°48'815.0
2017-Sep-17 04:00N 37°09' E 020°54'815.2
2017-Sep-17 03:30N 37°03' E 021°00'815.7
2017-Sep-17 03:00N 36°57' E 021°07'815.4
2017-Sep-17 02:30N 36°52' E 021°13'815.2
2017-Sep-17 02:00N 36°46' E 021°20'714.7
2017-Sep-17 01:30N 36°41' E 021°26'714.2
2017-Sep-17 01:00N 36°36' E 021°33'714.3
2017-Sep-17 00:30N 36°33' E 021°41'714.2
2017-Sep-17 00:00N 36°31' E 021°49'713.8
2017-Sep-16 23:30N 36°28' E 021°57'713.9
2017-Sep-16 23:00N 36°25' E 022°05'714.3
2017-Sep-16 22:30N 36°22' E 022°13'4914.3
2017-Sep-16 19:04N 36°23' E 023°14'114.5
2017-Sep-16 19:00N 36°24' E 023°15'1713.9
2017-Sep-16 17:49N 36°38' E 023°25'515.0
2017-Sep-16 17:30N 36°42' E 023°27'815.2
2017-Sep-16 17:01N 36°49' E 023°31'815.3
2017-Sep-16 16:31N 36°57' E 023°34'815.0
2017-Sep-16 16:00N 37°04' E 023°36'714.6
2017-Sep-16 15:31N 37°11' E 023°38'714.4
2017-Sep-16 15:01N 37°18' E 023°40'714.7
2017-Sep-16 14:31N 37°25' E 023°42'714.7
2017-Sep-16 14:00N 37°32' E 023°44'714.4
2017-Sep-16 13:30N 37°40' E 023°42'815.4
2017-Sep-16 13:00N 37°47' E 023°38'714.4
2017-Sep-16 12:30N 37°54' E 023°37'4 7.4
2017-Sep-16 12:00N 37°57' E 023°35'0 0.2
2017-Sep-16 11:29N 37°57' E 023°35'0 0.0
2017-Sep-16 10:59N 37°57' E 023°35'0 0.0
2017-Sep-16 10:29N 37°57' E 023°35'0 0.0
2017-Sep-16 09:59N 37°57' E 023°35'0 0.0
2017-Sep-16 09:29N 37°57' E 023°35'0 0.0
2017-Sep-16 08:59N 37°57' E 023°35'0 0.0
2017-Sep-16 08:29N 37°57' E 023°35'0 0.0
2017-Sep-16 07:59N 37°57' E 023°35'0 0.0
2017-Sep-16 07:29N 37°57' E 023°35'0 0.0
2017-Sep-16 06:59N 37°57' E 023°35'0 0.0
2017-Sep-16 06:29N 37°57' E 023°35'0 0.0
2017-Sep-16 05:59N 37°57' E 023°35'0 0.0
2017-Sep-16 05:29N 37°57' E 023°35'0 0.0
2017-Sep-16 04:59N 37°57' E 023°35'0 0.0
2017-Sep-16 04:29N 37°57' E 023°35'0 0.0
2017-Sep-16 03:59N 37°57' E 023°35'0 0.0
2017-Sep-16 03:29N 37°57' E 023°35'0 0.0
2017-Sep-16 02:59N 37°57' E 023°35'0 0.0
2017-Sep-16 02:29N 37°57' E 023°35'0 0.0
2017-Sep-16 01:59N 37°57' E 023°35'0 0.0
2017-Sep-16 01:29N 37°57' E 023°35'0 0.0
2017-Sep-16 00:59N 37°57' E 023°35'0 0.0
2017-Sep-16 00:29N 37°57' E 023°35'0 0.0
2017-Sep-15 23:59N 37°57' E 023°35'0 0.0
2017-Sep-15 23:29N 37°57' E 023°35'0 0.0
2017-Sep-15 22:59N 37°57' E 023°35'0 0.0
2017-Sep-15 22:29N 37°57' E 023°35'0 0.0
2017-Sep-15 21:59N 37°57' E 023°35'0 0.0
2017-Sep-15 21:29N 37°57' E 023°35'0 0.0
2017-Sep-15 20:59N 37°57' E 023°35'0 0.0
2017-Sep-15 20:29N 37°57' E 023°35'0 0.0
2017-Sep-15 19:59N 37°57' E 023°35'0 0.0
2017-Sep-15 19:29N 37°57' E 023°35'0 0.0
2017-Sep-15 18:53N 37°57' E 023°35'0 0.0
2017-Sep-15 18:29N 37°57' E 023°35'0 0.0
2017-Sep-15 17:59N 37°57' E 023°35'0 0.0
2017-Sep-15 17:29N 37°57' E 023°35'0 0.0
2017-Sep-15 16:59N 37°57' E 023°35'0 0.0
2017-Sep-15 16:29N 37°57' E 023°35'0 0.0
2017-Sep-15 15:59N 37°57' E 023°35'0 0.0
2017-Sep-15 15:29N 37°57' E 023°35'0 0.0
2017-Sep-15 14:59N 37°57' E 023°35'0 0.0
2017-Sep-15 14:29N 37°57' E 023°35'0 0.0
2017-Sep-15 13:59N 37°57' E 023°35'0 0.0
2017-Sep-15 13:29N 37°57' E 023°35'0 0.0
2017-Sep-15 12:59N 37°57' E 023°35'1 3.0
2017-Sep-15 12:30N 37°56' E 023°35'1 2.1
2017-Sep-15 12:00N 37°55' E 023°36'1 1.7
2017-Sep-15 11:31N 37°54' E 023°35'0 0.3
2017-Sep-15 11:01N 37°54' E 023°35'2 4.5
2017-Sep-15 10:30N 37°52' E 023°36'3 6.0
2017-Sep-15 10:00N 37°50' E 023°39'4 8.9
2017-Sep-15 09:30N 37°47' E 023°42'612.5
2017-Sep-15 09:00N 37°41' E 023°45'713.3
2017-Sep-15 08:30N 37°37' E 023°52'815.0
2017-Sep-15 07:59N 37°35' E 024°01'1414.8
2017-Sep-15 07:02N 37°42' E 024°16'114.5
2017-Sep-15 06:59N 37°43' E 024°17'815.0
2017-Sep-15 06:26N 37°49' E 024°25'2915.2
2017-Sep-15 04:31N 38°09' E 024°51'114.2
2017-Sep-15 04:27N 38°10' E 024°52'  
2017-Sep-12 22:42N 39°22' E 024°54'316.1
2017-Sep-12 22:30N 39°23' E 024°50'816.2
2017-Sep-12 22:01N 39°26' E 024°41'2016.2
2017-Sep-12 20:48N 39°34' E 024°18'516.1
2017-Sep-12 20:30N 39°35' E 024°12'816.1
2017-Sep-12 19:59N 39°38' E 024°02'  

Dump ship's entire track history